Time;durP1;ratioP1;P1;durP2;ratioP2;P2;SDS_P1;SDS_P2;PMS_P1;PMS_P2;Temp;Humidity;BMP_temperature;BMP_pressure;BME280_temperature;BME280_humidity;BME280_pressure;Samples;Min_cycle;Max_cycle;Signal;HPM_P1;HPM_P2
2023/12/01 00:01:09;;;;;;;46.70;17.60;;;;;;;1.87;82.64;100313.78;5059687;28;20422;-71
2023/12/01 00:03:34;;;;;;;47.72;18.35;;;;;;;1.85;82.70;100305.97;5062373;28;20407;-71
2023/12/01 00:05:59;;;;;;;42.20;17.40;;;;;;;1.83;82.72;100307.75;5058287;28;20131;-71
2023/12/01 00:08:25;;;;;;;48.30;17.98;;;;;;;1.84;82.74;100319.03;5055291;28;20379;-71
2023/12/01 00:10:50;;;;;;;39.78;17.25;;;;;;;1.86;82.63;100319.84;5061230;28;20397;-71
2023/12/01 00:13:15;;;;;;;44.67;17.27;;;;;;;1.82;83.25;100321.66;5060467;28;20028;-71
2023/12/01 00:15:41;;;;;;;42.85;17.70;;;;;;;1.78;83.43;100314.75;5060743;28;20016;-71
2023/12/01 00:18:06;;;;;;;44.67;16.88;;;;;;;1.81;82.62;100326.88;5058955;28;20461;-71
2023/12/01 00:20:31;;;;;;;41.88;15.95;;;;;;;1.82;82.44;100328.59;5061548;28;20106;-71
2023/12/01 00:22:58;;;;;;;45.45;16.92;;;;;;;1.82;82.46;100319.06;5056467;28;20100;-71
2023/12/01 00:25:23;;;;;;;46.90;17.77;;;;;;;1.83;82.72;100325.13;5058793;28;20049;-71
2023/12/01 00:27:49;;;;;;;41.28;16.67;;;;;;;1.84;82.74;100327.69;5054643;28;20063;-71
2023/12/01 00:30:14;;;;;;;45.20;17.70;;;;;;;1.81;82.62;100332.94;5060687;28;20036;-71
2023/12/01 00:32:40;;;;;;;41.20;16.13;;;;;;;1.78;82.05;100333.84;5061023;28;20028;-71
2023/12/01 00:35:06;;;;;;;42.88;16.73;;;;;;;1.75;82.70;100330.41;5062995;28;20472;-71
2023/12/01 00:37:31;;;;;;;43.70;17.38;;;;;;;1.74;82.60;100337.38;5063641;28;20086;-71
2023/12/01 00:39:57;;;;;;;44.85;17.13;;;;;;;1.76;82.74;100327.78;5056868;28;20025;-71
2023/12/01 00:42:22;;;;;;;43.70;18.20;;;;;;;1.76;82.47;100325.19;5063727;28;20017;-72
2023/12/01 00:44:48;;;;;;;46.45;17.55;;;;;;;1.78;82.40;100339.06;5052848;28;20033;-71
2023/12/01 00:47:13;;;;;;;46.65;16.98;;;;;;;1.79;83.10;100338.19;5058384;28;20100;-71
2023/12/01 00:49:39;;;;;;;42.25;16.05;;;;;;;1.77;83.01;100341.69;5063115;28;20119;-71
2023/12/01 00:52:05;;;;;;;50.17;16.90;;;;;;;1.68;82.83;100345.28;5056986;28;20025;-71
2023/12/01 00:54:30;;;;;;;41.15;16.52;;;;;;;1.75;82.33;100346.06;5060151;28;20592;-71
2023/12/01 00:56:56;;;;;;;43.17;15.95;;;;;;;1.75;82.64;100346.06;5059605;28;20048;-71
2023/12/01 00:59:21;;;;;;;44.60;16.77;;;;;;;1.75;82.59;100353.88;5061488;28;20028;-71
2023/12/01 01:01:47;;;;;;;51.05;18.10;;;;;;;1.73;82.73;100347.84;5062530;28;20779;-71
2023/12/01 01:04:13;;;;;;;49.53;17.77;;;;;;;1.69;82.89;100354.81;5065577;28;20028;-71
2023/12/01 01:06:38;;;;;;;49.30;18.70;;;;;;;1.68;82.77;100352.22;5067943;28;20037;-71
2023/12/01 01:09:04;;;;;;;48.00;18.25;;;;;;;1.68;82.73;100355.72;5066413;28;20017;-71
2023/12/01 01:11:29;;;;;;;55.58;18.23;;;;;;;1.72;82.79;100356.50;5064827;28;20028;-71
2023/12/01 01:13:55;;;;;;;47.42;18.10;;;;;;;1.68;82.72;100358.31;5058780;28;20029;-71
2023/12/01 01:16:22;;;;;;;48.95;18.02;;;;;;;1.90;81.92;100365.84;5061312;28;20017;-71
2023/12/01 01:18:47;;;;;;;46.20;16.95;;;;;;;1.70;82.65;100369.56;5059421;28;20431;-71
2023/12/01 01:21:13;;;;;;;56.28;17.70;;;;;;;1.75;82.96;100359.09;5060751;28;20037;-71
2023/12/01 01:23:38;;;;;;;50.38;17.20;;;;;;;1.96;82.06;100361.44;5067639;28;20041;-71
2023/12/01 01:26:04;;;;;;;53.85;18.63;;;;;;;2.02;81.88;100363.09;5057561;28;20063;-71
2023/12/01 01:28:29;;;;;;;49.45;18.15;;;;;;;1.95;81.93;100362.28;5061421;28;20055;-71
2023/12/01 01:30:54;;;;;;;56.63;19.20;;;;;;;1.77;82.28;100362.53;5058375;28;20039;-71
2023/12/01 01:33:20;;;;;;;47.70;18.75;;;;;;;1.75;82.40;100365.16;5062466;28;20036;-71
2023/12/01 01:35:45;;;;;;;52.92;18.65;;;;;;;1.75;82.69;100375.59;5064704;28;20071;-71
2023/12/01 01:38:10;;;;;;;53.25;18.58;;;;;;;1.73;82.32;100371.28;5062586;28;20044;-71
2023/12/01 01:40:36;;;;;;;50.38;18.55;;;;;;;1.66;82.48;100369.63;5066666;28;20303;-71
2023/12/01 01:43:01;;;;;;;50.30;17.85;;;;;;;1.70;81.85;100371.31;5064779;28;20036;-71
2023/12/01 01:45:26;;;;;;;49.13;17.23;;;;;;;1.67;81.93;100377.41;5068668;28;20078;-71
2023/12/01 01:47:52;;;;;;;48.25;16.67;;;;;;;1.61;81.83;100377.47;5067600;28;20464;-71
2023/12/01 01:50:18;;;;;;;45.17;17.27;;;;;;;1.52;81.90;100385.41;5065561;28;20180;-71
2023/12/01 01:52:44;;;;;;;46.53;16.77;;;;;;;1.49;81.96;100386.31;5063997;28;20112;-71
2023/12/01 01:55:10;;;;;;;49.47;17.42;;;;;;;1.51;81.88;100392.34;5063555;28;20029;-71
2023/12/01 01:57:44;;;;;;;54.90;19.15;;;;;;;1.49;82.11;100393.22;5063455;28;20048;-71
2023/12/01 02:00:10;;;;;;;53.42;17.92;;;;;;;1.50;81.83;100395.84;5061624;28;20471;-71
2023/12/01 02:02:36;;;;;;;48.53;16.75;;;;;;;1.45;81.59;100391.56;5062036;28;20107;-71
2023/12/01 02:05:02;;;;;;;47.13;15.98;;;;;;;1.50;81.91;100406.25;5070275;28;20482;-71
2023/12/01 02:07:28;;;;;;;55.15;17.50;;;;;;;1.49;82.01;100401.03;5065105;28;20035;-71
2023/12/01 02:09:56;;;;;;;53.13;17.95;;;;;;;1.48;81.89;100410.59;5064456;28;20029;-71
2023/12/01 02:12:22;;;;;;;42.22;16.48;;;;;;;1.48;81.53;100407.13;5060268;28;20036;-71
2023/12/01 02:14:47;;;;;;;48.92;16.05;;;;;;;1.41;81.81;100411.56;5062524;28;20033;-71
2023/12/01 02:17:12;;;;;;;46.25;17.05;;;;;;;1.40;81.87;100412.44;5064086;28;20048;-71
2023/12/01 02:19:38;;;;;;;54.15;18.75;;;;;;;1.42;81.72;100407.22;5059438;28;20403;-71
2023/12/01 02:22:05;;;;;;;49.00;17.33;;;;;;;1.43;81.70;100403.72;5065709;28;20396;-71
2023/12/01 02:24:30;;;;;;;51.70;18.60;;;;;;;1.41;81.69;100402.88;5058447;28;20108;-71
2023/12/01 02:26:56;;;;;;;49.97;17.15;;;;;;;1.41;82.07;100408.09;5061104;28;20099;-71
2023/12/01 02:29:21;;;;;;;60.05;18.38;;;;;;;1.40;82.12;100403.75;5057831;28;20039;-71
2023/12/01 02:31:46;;;;;;;56.38;18.60;;;;;;;1.46;82.39;100414.97;5061508;28;20052;-72
2023/12/01 02:34:12;;;;;;;56.53;18.73;;;;;;;1.53;81.83;100418.38;5057412;28;20020;-72
2023/12/01 02:36:38;;;;;;;54.05;18.92;;;;;;;1.49;81.76;100404.53;5064643;28;20031;-71
2023/12/01 02:39:03;;;;;;;50.70;18.63;;;;;;;1.52;82.04;100412.31;5060243;28;20066;-71
2023/12/01 02:41:29;;;;;;;53.60;18.92;;;;;;;1.56;81.73;100412.28;5055608;28;20557;-71
2023/12/01 02:43:54;;;;;;;50.92;18.35;;;;;;;1.59;82.10;100417.47;5062438;28;20494;-71
2023/12/01 02:46:22;;;;;;;54.83;19.88;;;;;;;1.57;81.67;100412.25;5060250;28;20025;-71
2023/12/01 02:48:49;;;;;;;54.83;19.95;;;;;;;1.45;82.22;100405.44;5063223;28;20181;-71
2023/12/01 02:51:14;;;;;;;55.78;17.60;;;;;;;1.47;82.26;100411.50;5053010;28;20423;-71
2023/12/01 02:53:40;;;;;;;66.13;22.05;;;;;;;1.52;81.99;100401.03;5054862;28;20025;-71
2023/12/01 02:56:05;;;;;;;55.00;17.98;;;;;;;1.60;82.08;100406.16;5062925;28;20045;-71
2023/12/01 02:58:31;;;;;;;53.63;17.85;;;;;;;1.59;82.14;100396.63;5060950;28;20032;-71
2023/12/01 03:00:57;;;;;;;53.80;17.13;;;;;;;1.58;82.17;100397.50;5062580;28;20420;-72
2023/12/01 03:03:22;;;;;;;55.40;18.52;;;;;;;1.58;82.15;100410.50;5061267;28;20545;-71
2023/12/01 03:05:48;;;;;;;58.72;19.85;;;;;;;1.57;82.41;100406.19;5061594;28;20052;-71
2023/12/01 03:08:13;;;;;;;55.65;19.63;;;;;;;1.57;82.23;100403.59;5067547;28;20017;-71
2023/12/01 03:10:39;;;;;;;50.25;18.25;;;;;;;1.46;82.39;100411.53;5064866;28;20028;-71
2023/12/01 03:13:04;;;;;;;52.63;19.33;;;;;;;1.70;81.61;100407.78;5062459;28;20025;-71
2023/12/01 03:15:30;;;;;;;57.50;19.27;;;;;;;1.53;81.97;100411.41;5065310;28;20198;-71
2023/12/01 03:17:55;;;;;;;60.38;18.00;;;;;;;1.52;82.50;100401.03;5064665;28;20028;-71
2023/12/01 03:20:21;;;;;;;59.53;20.67;;;;;;;1.57;82.06;100416.63;5065363;28;20036;-71
2023/12/01 03:22:47;;;;;;;63.42;20.92;;;;;;;1.57;82.35;100404.44;5068072;28;20048;-73
2023/12/01 03:25:13;;;;;;;60.95;20.15;;;;;;;1.64;82.09;100407.88;5060520;28;20027;-73
2023/12/01 03:27:44;;;;;;;67.63;21.70;;;;;;;1.68;81.84;100409.53;5066018;28;20024;-73
2023/12/01 03:30:13;;;;;;;60.47;20.55;;;;;;;1.65;82.62;100415.66;5061739;28;20442;-73
2023/12/01 03:32:46;;;;;;;72.43;20.95;;;;;;;1.65;82.30;100415.66;5060382;28;20376;-72
2023/12/01 03:35:22;;;;;;;72.18;21.45;;;;;;;1.58;83.17;100423.53;5057529;28;20078;-72
2023/12/01 03:37:48;;;;;;;69.30;21.48;;;;;;;1.55;82.72;100418.38;5054009;28;20041;-73
2023/12/01 03:40:14;;;;;;;61.10;20.45;;;;;;;1.54;82.76;100427.94;5057142;28;20380;-72
2023/12/01 03:42:45;;;;;;;62.28;20.23;;;;;;;1.48;82.72;100425.38;5055256;28;20031;-73
2023/12/01 03:45:12;;;;;;;64.85;20.13;;;;;;;1.44;82.56;100432.34;5061098;28;20033;-72
2023/12/01 03:47:41;;;;;;;63.40;18.30;;;;;;;1.37;82.96;100429.84;5060737;28;20052;-73
2023/12/01 03:50:18;;;;;;;65.43;18.63;;;;;;;1.39;82.96;100431.53;5065127;28;20032;-73
2023/12/01 03:52:45;;;;;;;58.63;17.48;;;;;;;1.34;82.74;100429.84;5065350;28;20392;-73
2023/12/01 03:55:11;;;;;;;67.32;18.83;;;;;;;1.32;82.52;100432.47;5060661;28;20546;-73
2023/12/01 03:57:37;;;;;;;62.15;19.05;;;;;;;1.24;82.20;100431.69;5062625;28;20123;-73
2023/12/01 04:00:08;;;;;;;61.03;17.52;;;;;;;1.22;82.32;100436.91;5065349;28;20032;-73
2023/12/01 04:02:41;;;;;;;76.97;19.80;;;;;;;1.20;82.91;100440.38;5060774;28;20086;-73
2023/12/01 04:05:08;;;;;;;57.97;17.33;;;;;;;1.24;82.81;100440.34;5065845;28;20103;-73
2023/12/01 04:07:34;;;;;;;55.35;18.15;;;;;;;1.27;83.07;100442.94;5062739;28;20032;-73
2023/12/01 04:09:59;;;;;;;63.15;17.85;;;;;;;1.31;83.00;100443.78;5062194;28;20044;-73
2023/12/01 04:12:25;;;;;;;58.00;18.38;;;;;;;1.31;82.96;100448.13;5064777;28;20024;-72
2023/12/01 04:14:50;;;;;;;62.25;18.58;;;;;;;1.30;83.30;100443.78;5061471;28;20036;-73
2023/12/01 04:17:15;;;;;;;56.65;17.60;;;;;;;1.31;83.29;100449.00;5063122;28;20036;-73
2023/12/01 04:19:41;;;;;;;64.47;19.35;;;;;;;1.29;82.96;100445.53;5064495;28;20026;-73
2023/12/01 04:22:07;;;;;;;73.25;20.00;;;;;;;1.26;83.19;100448.16;5064615;28;20024;-73
2023/12/01 04:24:33;;;;;;;58.95;19.55;;;;;;;1.19;83.69;100455.16;5067909;28;20446;-73
2023/12/01 04:27:00;;;;;;;62.75;20.27;;;;;;;1.21;83.89;100461.22;5052184;28;20287;-73
2023/12/01 04:29:28;;;;;;;67.82;19.45;;;;;;;1.20;83.82;100463.81;5053520;28;20029;-73
2023/12/01 04:31:53;;;;;;;58.78;19.95;;;;;;;1.22;83.58;100464.69;5064206;28;20017;-71
2023/12/01 04:34:20;;;;;;;70.57;21.02;;;;;;;1.27;83.63;100468.97;5062929;28;20134;-71
2023/12/01 04:36:46;;;;;;;74.82;21.65;;;;;;;1.26;83.54;100467.25;5061940;28;20107;-71
2023/12/01 04:39:14;;;;;;;65.95;20.27;;;;;;;1.24;83.99;100473.34;5062184;28;20448;-72
2023/12/01 04:41:39;;;;;;;59.97;18.42;;;;;;;1.28;83.85;100472.44;5070504;28;20364;-73
2023/12/01 04:44:04;;;;;;;68.95;20.58;;;;;;;1.23;83.55;100467.28;5068580;28;20030;-73
2023/12/01 04:46:30;;;;;;;58.22;19.02;;;;;;;1.26;83.65;100471.59;5067342;28;20032;-73
2023/12/01 04:48:56;;;;;;;69.97;21.63;;;;;;;1.26;83.79;100471.59;5064051;28;20525;-73
2023/12/01 04:51:21;;;;;;;60.92;20.42;;;;;;;1.28;83.60;100475.03;5063499;28;20032;-72
2023/12/01 04:53:48;;;;;;;62.03;20.30;;;;;;;1.29;83.71;100481.97;5060544;28;20016;-71
2023/12/01 04:56:13;;;;;;;77.75;21.17;;;;;;;1.32;84.00;100484.56;5061631;28;20052;-72
2023/12/01 04:58:39;;;;;;;68.88;20.85;;;;;;;1.33;83.65;100486.28;5059572;28;20025;-71
2023/12/01 05:01:04;;;;;;;63.83;20.95;;;;;;;1.35;83.72;100489.72;5057529;28;20036;-72
2023/12/01 05:03:30;;;;;;;69.20;22.13;;;;;;;1.42;83.31;100491.41;5059501;28;20036;-73
2023/12/01 05:05:58;;;;;;;70.20;22.33;;;;;;;1.51;83.33;100493.94;5060882;28;20024;-72
2023/12/01 05:08:23;;;;;;;66.50;21.95;;;;;;;1.50;82.71;100494.84;5066908;28;20021;-73
2023/12/01 05:10:50;;;;;;;72.47;21.73;;;;;;;1.50;82.93;100499.19;5055984;28;20305;-73
2023/12/01 05:13:15;;;;;;;68.63;21.92;;;;;;;1.53;82.77;100497.38;5063981;28;20025;-73
2023/12/01 05:15:41;;;;;;;73.03;24.35;;;;;;;1.61;82.68;100499.06;5059269;28;20476;-73
2023/12/01 05:18:10;;;;;;;75.32;22.33;;;;;;;1.65;82.62;100498.16;5069418;28;20040;-73
2023/12/01 05:20:36;;;;;;;79.70;24.65;;;;;;;1.57;82.88;100510.41;5058512;28;20074;-73
2023/12/01 05:23:05;;;;;;;66.45;21.83;;;;;;;1.53;82.73;100513.03;5060436;28;20033;-72
2023/12/01 05:25:35;;;;;;;61.47;20.80;;;;;;;1.48;82.52;100516.53;5063384;28;20028;-72
2023/12/01 05:28:06;;;;;;;67.82;22.83;;;;;;;1.50;82.22;100515.66;5063131;28;20047;-73
2023/12/01 05:30:33;;;;;;;61.17;21.80;;;;;;;1.46;82.03;100520.91;5057118;28;20621;-73
2023/12/01 05:32:59;;;;;;;64.15;21.40;;;;;;;1.47;81.46;100523.50;5061511;28;20028;-73
2023/12/01 05:35:25;;;;;;;56.70;19.75;;;;;;;1.49;80.76;100518.25;5058831;28;20025;-75
2023/12/01 05:37:53;;;;;;;54.65;18.58;;;;;;;1.56;80.79;100521.72;5064451;28;20358;-75
2023/12/01 05:40:20;;;;;;;57.35;20.15;;;;;;;1.65;80.84;100524.22;5058092;28;20043;-75
2023/12/01 05:42:47;;;;;;;51.30;19.75;;;;;;;1.30;81.87;100522.75;5057096;28;20143;-75
2023/12/01 05:45:13;;;;;;;56.25;18.50;;;;;;;1.27;82.21;100528.00;5066438;28;20117;-74
2023/12/01 05:47:42;;;;;;;56.10;19.40;;;;;;;1.31;82.08;100532.31;5063647;28;20488;-75
2023/12/01 05:50:17;;;;;;;53.42;19.42;;;;;;;1.30;82.25;100532.31;5061926;28;20036;-75
2023/12/01 05:52:45;;;;;;;52.85;18.05;;;;;;;1.26;81.82;100531.50;5064406;28;20481;-75
2023/12/01 05:55:15;;;;;;;56.08;19.92;;;;;;;1.24;81.95;100541.03;5065610;28;20151;-75
2023/12/01 05:57:45;;;;;;;54.50;18.10;;;;;;;1.29;82.08;100531.44;5066197;28;20044;-75
2023/12/01 06:00:29;;;;;;;52.47;18.88;;;;;;;1.28;81.64;100533.19;5070348;28;20351;-75
2023/12/01 06:02:58;;;;;;;61.63;21.83;;;;;;;1.25;81.03;100540.16;5061510;28;20029;-74
2023/12/01 06:05:24;;;;;;;50.67;19.92;;;;;;;1.38;81.03;100536.59;5067983;28;20029;-73
2023/12/01 06:07:52;;;;;;;50.55;19.10;;;;;;;1.35;80.72;100540.94;5068107;28;20071;-73
2023/12/01 06:10:18;;;;;;;51.05;18.95;;;;;;;1.76;79.61;100549.31;5070643;28;20555;-73
2023/12/01 06:12:44;;;;;;;55.72;20.77;;;;;;;1.85;79.11;100543.16;5069919;28;20438;-73
2023/12/01 06:15:12;;;;;;;50.58;18.67;;;;;;;1.86;78.35;100538.78;5061608;28;20407;-74
2023/12/01 06:17:42;;;;;;;49.10;18.95;;;;;;;1.63;78.64;100544.22;5064907;28;20037;-73
2023/12/01 06:20:17;;;;;;;48.38;19.48;;;;;;;1.72;78.78;100542.38;5060904;28;20028;-73
2023/12/01 06:22:50;;;;;;;44.03;18.83;;;;;;;1.77;78.58;100547.56;5064706;28;20387;-73
2023/12/01 06:25:17;;;;;;;52.30;18.95;;;;;;;1.78;79.32;100551.91;5069646;28;20369;-73
2023/12/01 06:27:43;;;;;;;44.03;16.48;;;;;;;1.70;78.53;100546.75;5059396;28;20017;-74
2023/12/01 06:30:12;;;;;;;44.53;17.38;;;;;;;1.76;78.60;100551.03;5057104;28;20546;-73
2023/12/01 06:32:46;;;;;;;47.05;16.98;;;;;;;1.42;79.22;100547.88;5062287;28;20043;-73
2023/12/01 06:35:13;;;;;;;41.33;17.20;;;;;;;1.56;79.68;100547.75;5059943;28;20021;-73
2023/12/01 06:37:39;;;;;;;47.72;16.85;;;;;;;1.28;79.70;100555.78;5058656;28;20040;-73
2023/12/01 06:40:13;;;;;;;43.83;17.90;;;;;;;1.21;80.32;100556.66;5062773;28;20039;-74
2023/12/01 06:42:39;;;;;;;48.88;17.90;;;;;;;1.20;81.03;100558.41;5057031;28;20378;-74
2023/12/01 06:45:06;;;;;;;48.72;17.05;;;;;;;1.22;81.54;100548.00;5058798;28;20032;-74
2023/12/01 06:47:32;;;;;;;47.30;18.10;;;;;;;1.25;82.01;100546.22;5059779;28;20074;-73
2023/12/01 06:49:57;;;;;;;47.15;18.55;;;;;;;1.27;81.55;100543.63;5064925;28;20020;-73
2023/12/01 06:52:23;;;;;;;54.40;19.38;;;;;;;1.24;81.58;100548.84;5058951;28;20151;-74
2023/12/01 06:54:48;;;;;;;51.50;18.85;;;;;;;1.24;82.25;100554.06;5057993;28;20032;-73
2023/12/01 06:57:13;;;;;;;38.70;14.57;;;;;;;1.41;82.09;100556.56;5064123;28;20068;-74
2023/12/01 06:59:39;;;;;;;41.58;15.20;;;;;;;1.29;81.67;100557.50;5067350;28;20075;-74
2023/12/01 07:02:04;;;;;;;38.67;16.38;;;;;;;1.32;81.28;100562.69;5064577;28;20044;-73
2023/12/01 07:04:32;;;;;;;44.78;16.27;;;;;;;1.38;81.31;100565.25;5060726;28;20059;-73
2023/12/01 07:07:00;;;;;;;44.75;16.40;;;;;;;1.45;81.45;100569.53;5065812;28;20112;-74
2023/12/01 07:09:26;;;;;;;44.05;16.55;;;;;;;1.51;81.04;100569.50;5062944;28;20530;-73
2023/12/01 07:11:53;;;;;;;39.30;15.90;;;;;;;1.53;81.39;100575.53;5060364;28;20548;-74
2023/12/01 07:14:19;;;;;;;37.83;13.98;;;;;;;1.51;81.45;100577.31;5054394;28;20089;-73
2023/12/01 07:16:44;;;;;;;37.97;15.55;;;;;;;1.53;80.94;100583.34;5053449;28;20036;-73
2023/12/01 07:19:10;;;;;;;34.08;13.77;;;;;;;1.61;81.74;100585.91;5059552;28;20029;-73
2023/12/01 07:21:35;;;;;;;45.85;17.48;;;;;;;1.66;80.52;100586.75;5052597;28;20120;-75
2023/12/01 07:24:06;;;;;;;50.78;17.83;;;;;;;1.64;80.25;100585.91;5056881;28;20108;-75
2023/12/01 07:26:33;;;;;;;44.80;16.55;;;;;;;1.67;80.31;100596.28;5061834;28;20491;-75
2023/12/01 07:29:00;;;;;;;46.20;17.35;;;;;;;1.69;80.31;100593.69;5056415;28;20013;-75
2023/12/01 07:31:26;;;;;;;43.33;16.10;;;;;;;1.63;80.25;100591.09;5052669;28;20067;-75
2023/12/01 07:33:51;;;;;;;38.55;14.88;;;;;;;1.70;80.37;100584.97;5055639;28;20060;-75
2023/12/01 07:36:17;;;;;;;45.08;17.02;;;;;;;1.71;80.29;100586.72;5051220;28;20112;-75
2023/12/01 07:38:42;;;;;;;45.80;16.48;;;;;;;1.70;79.97;100591.06;5059574;28;20029;-74
2023/12/01 07:41:07;;;;;;;45.15;16.50;;;;;;;1.67;80.13;100591.06;5054626;28;20048;-74
2023/12/01 07:43:33;;;;;;;43.88;15.95;;;;;;;1.77;80.36;100600.56;5061657;28;20028;-75
2023/12/01 07:45:58;;;;;;;38.42;14.98;;;;;;;1.53;80.68;100582.50;5055686;28;20123;-75
2023/12/01 07:48:24;;;;;;;42.50;16.73;;;;;;;1.68;81.12;100597.16;5060392;28;20032;-75
2023/12/01 07:50:49;;;;;;;37.88;14.48;;;;;;;1.56;81.75;100586.84;5057743;28;20051;-75
2023/12/01 07:53:16;;;;;;;48.85;16.83;;;;;;;1.55;81.25;100585.13;5065334;28;20031;-75
2023/12/01 07:55:42;;;;;;;46.33;14.27;;;;;;;1.62;81.58;100585.03;5055348;28;20060;-73
2023/12/01 07:58:07;;;;;;;45.35;16.20;;;;;;;1.88;80.37;100590.03;5063765;28;20025;-73
2023/12/01 08:00:32;;;;;;;38.03;14.48;;;;;;;1.56;81.98;100586.84;5053159;28;20395;-73
2023/12/01 08:02:58;;;;;;;42.70;16.27;;;;;;;1.62;81.34;100587.63;5057571;28;20527;-73
2023/12/01 08:05:24;;;;;;;41.92;15.40;;;;;;;1.73;80.74;100587.56;5061605;28;20108;-73
2023/12/01 08:07:51;;;;;;;45.05;16.02;;;;;;;1.52;81.39;100584.25;5051413;28;20032;-73
2023/12/01 08:10:20;;;;;;;43.38;15.90;;;;;;;1.51;81.85;100592.06;5057667;28;20029;-73
2023/12/01 08:12:47;;;;;;;46.45;17.63;;;;;;;1.49;81.71;100586.88;5057796;28;20024;-73
2023/12/01 08:15:13;;;;;;;41.90;15.93;;;;;;;2.00;80.18;100592.53;5055207;28;20032;-73
2023/12/01 08:17:40;;;;;;;46.70;16.92;;;;;;;1.80;80.66;100591.84;5057052;28;20597;-77
2023/12/01 08:20:06;;;;;;;47.65;16.60;;;;;;;1.88;80.58;100602.22;5051400;28;20078;-70
2023/12/01 08:22:35;;;;;;;44.03;16.50;;;;;;;1.97;79.82;100602.13;5058059;28;20027;-69
2023/12/01 08:25:01;;;;;;;41.28;15.20;;;;;;;2.01;80.00;100612.53;5053594;28;20024;-70
2023/12/01 08:27:26;;;;;;;42.53;14.75;;;;;;;2.01;79.59;100603.84;5059029;28;20024;-70
2023/12/01 08:29:52;;;;;;;42.03;14.52;;;;;;;2.00;80.28;100596.88;5062551;28;20020;-69
2023/12/01 08:32:18;;;;;;;40.92;15.48;;;;;;;2.03;79.73;100610.75;5063843;28;20024;-70
2023/12/01 08:34:43;;;;;;;41.75;14.48;;;;;;;2.05;80.14;100615.94;5061508;28;20070;-70
2023/12/01 08:37:08;;;;;;;37.22;14.77;;;;;;;2.08;80.13;100617.69;5063569;28;20021;-70
2023/12/01 08:39:34;;;;;;;35.28;13.18;;;;;;;2.13;79.70;100615.88;5061277;28;20372;-70
2023/12/01 08:41:59;;;;;;;33.22;13.00;;;;;;;2.12;79.65;100620.25;5062739;28;20105;-70
2023/12/01 08:44:24;;;;;;;37.25;14.32;;;;;;;2.12;79.61;100615.03;5059157;28;20384;-70
2023/12/01 08:46:50;;;;;;;33.75;12.85;;;;;;;2.10;79.89;100621.13;5061283;28;20021;-70
2023/12/01 08:49:15;;;;;;;29.23;11.27;;;;;;;2.12;80.39;100635.88;5061230;28;20032;-70
2023/12/01 08:51:43;;;;;;;33.83;10.70;;;;;;;1.91;80.56;100625.63;5066378;28;20424;-72
2023/12/01 08:54:08;;;;;;;32.35;11.63;;;;;;;1.96;80.68;100626.47;5060022;28;20411;-70
2023/12/01 08:56:34;;;;;;;26.13;10.90;;;;;;;2.07;80.40;100629.00;5056909;28;20037;-69
2023/12/01 08:59:00;;;;;;;28.60;11.57;;;;;;;1.81;80.86;100624.84;5062103;28;20032;-73
2023/12/01 09:01:26;;;;;;;28.77;11.65;;;;;;;1.85;80.86;100628.28;5064602;28;20043;-70
2023/12/01 09:03:51;;;;;;;27.58;10.73;;;;;;;1.82;80.93;100626.59;5057960;28;20032;-70
2023/12/01 09:06:17;;;;;;;25.67;11.32;;;;;;;1.81;80.95;100629.19;5060556;28;20025;-70
2023/12/01 09:08:42;;;;;;;27.27;10.30;;;;;;;1.88;80.79;100630.88;5065820;28;20019;-70
2023/12/01 09:11:08;;;;;;;31.58;11.07;;;;;;;1.90;79.90;100632.59;5059225;28;20029;-70
2023/12/01 09:13:34;;;;;;;27.33;11.27;;;;;;;1.92;80.43;100632.59;5060612;28;20499;-70
2023/12/01 09:16:00;;;;;;;26.80;9.15;;;;;;;1.92;79.85;100632.59;5059505;28;20036;-70
2023/12/01 09:18:27;;;;;;;24.13;10.38;;;;;;;1.91;79.66;100636.94;5067416;28;20035;-70
2023/12/01 09:20:52;;;;;;;30.13;11.57;;;;;;;1.98;79.05;100641.22;5062614;28;20480;-71
2023/12/01 09:23:17;;;;;;;27.42;9.90;;;;;;;1.96;78.94;100643.00;5065996;28;20111;-71
2023/12/01 09:25:43;;;;;;;28.38;11.43;;;;;;;2.39;77.92;100647.81;5062831;28;20130;-71
2023/12/01 09:28:08;;;;;;;27.35;9.57;;;;;;;2.39;76.25;100650.44;5070426;28;20016;-70
2023/12/01 09:30:34;;;;;;;24.60;10.52;;;;;;;2.04;78.50;100653.34;5064487;28;20033;-70
2023/12/01 09:32:59;;;;;;;28.75;10.90;;;;;;;2.07;79.63;100660.28;5058780;28;20093;-70
2023/12/01 09:35:26;;;;;;;24.67;10.13;;;;;;;2.10;78.97;100652.41;5063956;28;20020;-70
2023/12/01 09:37:51;;;;;;;24.25;10.93;;;;;;;2.15;78.04;100663.69;5064769;28;20103;-70
2023/12/01 09:40:18;;;;;;;25.90;11.27;;;;;;;2.27;77.84;100659.22;5067202;28;20035;-70
2023/12/01 09:42:46;;;;;;;24.90;10.65;;;;;;;2.20;77.37;100664.53;5072327;28;20510;-70
2023/12/01 09:45:20;;;;;;;27.92;11.02;;;;;;;2.27;77.37;100663.56;5060373;28;20083;-71
2023/12/01 09:47:51;;;;;;;26.38;10.30;;;;;;;2.32;77.74;100668.75;5067872;28;20033;-70
2023/12/01 09:50:17;;;;;;;21.60;9.40;;;;;;;2.43;76.77;100672.13;5064841;28;20028;-69
2023/12/01 09:52:42;;;;;;;21.52;10.25;;;;;;;2.47;76.70;100673.81;5070053;28;20028;-70
2023/12/01 09:55:08;;;;;;;25.20;10.93;;;;;;;2.54;76.05;100668.53;5063566;28;20032;-70
2023/12/01 09:57:34;;;;;;;28.65;11.45;;;;;;;2.56;76.47;100678.94;5060176;28;20049;-70
2023/12/01 10:00:00;;;;;;;28.73;11.27;;;;;;;2.60;77.12;100677.16;5062005;28;20090;-70
2023/12/01 10:02:27;;;;;;;23.00;10.55;;;;;;;2.61;76.38;100674.56;5062327;28;20024;-70
2023/12/01 10:05:01;;;;;;;24.02;10.55;;;;;;;2.68;76.91;100677.97;5066171;28;20027;-71
2023/12/01 10:07:27;;;;;;;30.23;11.90;;;;;;;2.67;76.35;100682.31;5069626;28;20103;-70
2023/12/01 10:09:52;;;;;;;25.70;10.90;;;;;;;2.59;75.88;100678.06;5059612;28;20169;-70
2023/12/01 10:12:17;;;;;;;26.80;11.15;;;;;;;2.52;76.16;100677.25;5064766;28;20025;-70
2023/12/01 10:14:43;;;;;;;22.40;9.82;;;;;;;2.61;75.63;100671.06;5058061;28;20020;-71
2023/12/01 10:17:12;;;;;;;26.45;11.05;;;;;;;2.60;76.05;100674.56;5059210;28;20035;-71
2023/12/01 10:19:47;;;;;;;26.08;11.25;;;;;;;2.60;76.29;100670.19;5060293;28;20045;-69
2023/12/01 10:22:13;;;;;;;25.95;10.45;;;;;;;2.61;76.58;100677.19;5071979;28;20016;-69
2023/12/01 10:24:39;;;;;;;25.92;10.25;;;;;;;2.61;75.65;100682.41;5063573;28;20087;-69
2023/12/01 10:27:08;;;;;;;23.05;9.73;;;;;;;2.60;75.39;100680.63;5059918;28;20518;-69
2023/12/01 10:29:35;;;;;;;20.58;9.50;;;;;;;2.61;76.19;100677.19;5062446;28;20047;-70
2023/12/01 10:32:02;;;;;;;24.02;10.45;;;;;;;2.62;75.49;100678.91;5064790;28;20020;-70
2023/12/01 10:34:28;;;;;;;25.77;9.25;;;;;;;2.63;74.85;100683.22;5062885;28;20031;-70
2023/12/01 10:36:54;;;;;;;25.80;10.25;;;;;;;2.63;74.70;100685.84;5061776;28;20384;-70
2023/12/01 10:39:29;;;;;;;24.40;10.55;;;;;;;2.66;75.15;100684.94;5068951;28;20083;-69
2023/12/01 10:41:56;;;;;;;23.33;10.27;;;;;;;2.64;74.87;100678.88;5067179;28;20440;-69
2023/12/01 10:44:26;;;;;;;26.65;10.95;;;;;;;2.64;74.46;100678.88;5057158;28;20025;-69
2023/12/01 10:46:53;;;;;;;20.85;9.32;;;;;;;2.63;74.71;100678.00;5061052;28;20029;-70
2023/12/01 10:49:20;;;;;;;24.63;9.55;;;;;;;2.63;73.99;100672.78;5065306;28;20028;-70
2023/12/01 10:51:47;;;;;;;22.05;10.23;;;;;;;2.60;74.50;100680.63;5065105;28;20044;-70
2023/12/01 10:54:14;;;;;;;21.65;9.65;;;;;;;2.69;73.44;100682.28;5061732;28;20025;-70
2023/12/01 10:56:58;;;;;;;23.70;10.38;;;;;;;2.52;74.26;100675.53;5062108;28;20105;-70
2023/12/01 10:59:26;;;;;;;23.73;10.63;;;;;;;2.52;73.63;100683.34;5061166;28;20051;-69
2023/12/01 11:01:53;;;;;;;21.17;8.60;;;;;;;2.45;73.75;100679.06;5067732;28;20024;-70
2023/12/01 11:04:32;;;;;;;24.90;9.63;;;;;;;2.45;72.86;100675.59;5067863;28;20025;-70
2023/12/01 11:07:13;;;;;;;23.35;10.00;;;;;;;2.44;73.32;100666.03;5059992;28;20024;-70
2023/12/01 11:09:48;;;;;;;22.35;9.07;;;;;;;2.43;73.45;100662.56;5053016;28;20063;-71
2023/12/01 11:12:20;;;;;;;22.85;9.95;;;;;;;2.43;72.76;100670.38;5061078;28;20571;-70
2023/12/01 11:14:49;;;;;;;21.60;10.05;;;;;;;2.50;73.08;100666.81;5063259;28;20033;-70